Lahore Weather



Lahore's Current Weather

Temprature 36o few clouds

few clouds

Rain: 0 %

Min Temprature36o
Max Temprature36o
Humidity26
Wind Speed3.09 m/h
Sun Rise05:11:26
Sun Set18:46:48
Current Time: 08-May-2021 15:38:29
Lat/Lon: 31.5497, 74.3436




Lahore's Geo Location



Lahore's Weather Forecast

Time Overall Temp Min Temp Max Temp Humidity Wind Speed Rain
08-May-2021 (Sat)
17:00:00 few clouds 36.000 36.000 36.810 26 1.45 m/h 0 %
20:00:00 few clouds 35.140 33.410 35.140 25 1.69 m/h 0 %
23:00:00 light rain 31.030 28.540 31.030 32 1.6 m/h 32 %
09-May-2021 (Sun)
02:00:00 scattered clouds 28.230 28.230 28.230 35 1.55 m/h 0 %
05:00:00 scattered clouds 27.320 27.320 27.320 38 2.87 m/h 0 %
08:00:00 light rain 31.880 31.880 31.880 28 2.52 m/h 10 %
11:00:00 broken clouds 37.420 37.420 37.420 18 2.34 m/h 0 %
14:00:00 scattered clouds 39.740 39.740 39.740 14 1.73 m/h 0 %
17:00:00 light rain 31.870 31.870 31.870 24 9.05 m/h 16 %
20:00:00 light rain 27.810 27.810 27.810 40 5.53 m/h 67 %
23:00:00 overcast clouds 27.960 27.960 27.960 39 1.51 m/h 0 %
10-May-2021 (Mon)
02:00:00 overcast clouds 27.150 27.150 27.150 39 1.82 m/h 0 %
05:00:00 overcast clouds 26.540 26.540 26.540 40 0.81 m/h 0 %
08:00:00 overcast clouds 30.760 30.760 30.760 31 3.66 m/h 0 %
11:00:00 overcast clouds 36.420 36.420 36.420 20 2.26 m/h 0 %
14:00:00 overcast clouds 40.160 40.160 40.160 14 0.61 m/h 0 %
17:00:00 broken clouds 39.820 39.820 39.820 13 2.13 m/h 0 %
20:00:00 clear sky 35.010 35.010 35.010 18 2.6 m/h 0 %
23:00:00 few clouds 31.190 31.190 31.190 25 1.75 m/h 0 %
11-May-2021 (Tue)
02:00:00 broken clouds 29.980 29.980 29.980 28 3.26 m/h 0 %
05:00:00 broken clouds 28.410 28.410 28.410 31 1.74 m/h 0 %
08:00:00 scattered clouds 33.190 33.190 33.190 24 2.03 m/h 0 %
11:00:00 few clouds 38.370 38.370 38.370 17 3.07 m/h 0 %
14:00:00 clear sky 41.470 41.470 41.470 12 2.76 m/h 0 %
17:00:00 clear sky 41.440 41.440 41.440 11 1.3 m/h 0 %
20:00:00 broken clouds 33.420 33.420 33.420 24 3.79 m/h 0 %
23:00:00 light rain 31.330 31.330 31.330 28 3.65 m/h 36 %
12-May-2021 (Wed)
02:00:00 overcast clouds 30.050 30.050 30.050 33 4.59 m/h 0 %
05:00:00 light rain 27.730 27.730 27.730 39 4.37 m/h 39 %
08:00:00 overcast clouds 30.520 30.520 30.520 32 2.88 m/h 0 %
11:00:00 overcast clouds 33.020 33.020 33.020 27 2.67 m/h 0 %
14:00:00 light rain 28.220 28.220 28.220 45 9.55 m/h 68 %
17:00:00 light rain 28.110 28.110 28.110 44 6.61 m/h 41 %
20:00:00 overcast clouds 27.340 27.340 27.340 47 3.57 m/h 0 %
23:00:00 overcast clouds 25.950 25.950 25.950 51 3.36 m/h 0 %
13-May-2021 (Thu)
02:00:00 overcast clouds 24.620 24.620 24.620 52 2.68 m/h 0 %
05:00:00 broken clouds 23.490 23.490 23.490 57 1.34 m/h 0 %
08:00:00 overcast clouds 27.460 27.460 27.460 45 3.72 m/h 0 %
11:00:00 broken clouds 32.970 32.970 32.970 30 4.28 m/h 0 %
14:00:00 few clouds 35.930 35.930 35.930 23 1.56 m/h 0 %


Lahore's Tourist Spots

Historical Places in Lahore

Famous Cities (60)